Jackson, Minnesota
Current Conditions -  °F | °C
As of 8:13 PM on Thursday 18 Dec 2014 (Local Time) from KMJQ Reporting Station
Overcast Overcast  
Wind Chill: 20°   Ceiling: 7000
Heat Index: 27°   Visibility: 10mi
Dew Point: 21°   Wind: 6mph
Humidity: 80%   Direction: 160°SSE
Pressure: 30.21"   Gusts: NA
Location:  43.62°N, 94.99°W
Report Text: KMJQ 190213Z AUTO 16005KT 10SM OVC070 M03/M06 A3021 RMK AO2
Loading
Personal Weather Stations






























Interactive Weather Map New forecast layout! Learn more

10-Day Weather Forecast

Advertisements
Track Severe Weather on mobile